Time,TemperatureF,DewpointF,PressureIn,WindDirection,WindDirectionDegrees,WindSpeedMPH,WindSpeedGustMPH,Humidity,HourlyPrecipIn,Conditions,Clouds,dailyrainin,SoftwareType,DateUTC
2013-06-15 00:01:00,46.6,40.8,29.98,NNW,331,0.0,0.0,80,0.00,,CLR,0.00,VWS V14.01,2013-06-15 04:01:00,
2013-06-15 00:06:00,46.2,40.7,29.98,North,0,0.0,0.0,81,0.00,,CLR,0.00,VWS V14.01,2013-06-15 04:06:00,
2013-06-15 00:11:00,46.0,40.9,29.98,North,0,0.0,0.0,82,0.00,,CLR,0.00,VWS V14.01,2013-06-15 04:11:00,
2013-06-15 00:17:00,46.0,40.9,29.98,North,0,0.0,0.0,82,0.00,,CLR,0.00,VWS V14.01,2013-06-15 04:17:00,
2013-06-15 00:22:00,45.7,40.8,29.98,North,0,0.0,0.0,83,0.00,,CLR,0.00,VWS V14.01,2013-06-15 04:22:00,
2013-06-15 00:27:00,45.7,40.8,29.98,North,0,0.0,0.0,83,0.00,,CLR,0.00,VWS V14.01,2013-06-15 04:27:00,
2013-06-15 00:32:00,45.3,40.5,29.98,North,0,0.0,0.0,83,0.00,,CLR,0.00,VWS V14.01,2013-06-15 04:32:00,
2013-06-15 00:37:00,45.3,40.5,29.98,North,0,0.0,0.0,83,0.00,,CLR,0.00,VWS V14.01,2013-06-15 04:37:00,
2013-06-15 00:42:00,45.0,40.4,29.98,North,0,0.0,0.0,84,0.00,,CLR,0.00,VWS V14.01,2013-06-15 04:42:00,
2013-06-15 00:47:00,45.0,40.4,29.98,North,0,0.0,0.0,84,0.00,,CLR,0.00,VWS V14.01,2013-06-15 04:47:00,
2013-06-15 00:52:00,45.0,40.4,29.98,North,0,0.0,0.0,84,0.00,,CLR,0.00,VWS V14.01,2013-06-15 04:52:00,
2013-06-15 00:57:00,45.0,40.4,29.98,North,0,0.0,0.0,84,0.00,,CLR,0.00,VWS V14.01,2013-06-15 04:57:00,
2013-06-15 01:02:00,45.0,40.4,29.98,North,0,0.0,0.0,84,0.00,,CLR,0.00,VWS V14.01,2013-06-15 05:02:00,
2013-06-15 01:07:00,44.4,40.5,29.98,North,0,0.0,0.0,86,0.00,,CLR,0.00,VWS V14.01,2013-06-15 05:07:00,
2013-06-15 01:12:00,44.2,40.3,29.98,North,0,0.0,0.0,86,0.00,,CLR,0.00,VWS V14.01,2013-06-15 05:12:00,
2013-06-15 01:17:00,44.2,40.3,29.98,North,0,0.0,0.0,86,0.00,,CLR,0.00,VWS V14.01,2013-06-15 05:17:00,
2013-06-15 01:22:00,44.1,40.2,29.98,North,0,0.0,0.0,86,0.00,,CLR,0.00,VWS V14.01,2013-06-15 05:22:00,
2013-06-15 01:27:00,43.7,40.1,29.98,North,0,0.0,0.0,87,0.00,,CLR,0.00,VWS V14.01,2013-06-15 05:27:00,
2013-06-15 01:32:00,43.7,40.1,29.98,North,0,0.0,0.0,87,0.00,,CLR,0.00,VWS V14.01,2013-06-15 05:32:00,
2013-06-15 01:37:00,43.7,40.1,29.98,North,0,0.0,0.0,87,0.00,,CLR,0.00,VWS V14.01,2013-06-15 05:37:00,
2013-06-15 01:42:00,43.7,40.1,29.98,North,0,0.0,0.0,87,0.00,,CLR,0.00,VWS V14.01,2013-06-15 05:42:00,
2013-06-15 01:47:00,43.3,40.0,29.98,North,0,0.0,0.0,88,0.00,,CLR,0.00,VWS V14.01,2013-06-15 05:47:00,
2013-06-15 01:52:00,43.2,39.8,29.98,North,0,0.0,0.0,88,0.00,,CLR,0.00,VWS V14.01,2013-06-15 05:52:00,
2013-06-15 01:57:00,43.2,39.8,29.98,North,0,0.0,0.0,88,0.00,,CLR,0.00,VWS V14.01,2013-06-15 05:57:00,
2013-06-15 02:02:00,43.2,39.8,29.98,North,0,0.0,0.0,88,0.00,,CLR,0.00,VWS V14.01,2013-06-15 06:02:00,
2013-06-15 02:07:00,42.8,39.5,29.98,North,0,0.0,0.0,88,0.00,,CLR,0.00,VWS V14.01,2013-06-15 06:07:00,
2013-06-15 02:12:00,42.8,39.5,29.98,North,0,0.0,0.0,88,0.00,,CLR,0.00,VWS V14.01,2013-06-15 06:12:00,
2013-06-15 02:17:00,42.6,39.6,29.98,North,0,0.0,0.0,89,0.00,,CLR,0.00,VWS V14.01,2013-06-15 06:17:00,
2013-06-15 02:22:00,42.6,39.6,29.98,North,0,0.0,0.0,89,0.00,,CLR,0.00,VWS V14.01,2013-06-15 06:22:00,
2013-06-15 02:27:00,42.6,39.6,29.98,North,0,0.0,0.0,89,0.00,,CLR,0.00,VWS V14.01,2013-06-15 06:27:00,
2013-06-15 02:32:00,42.6,39.6,29.98,North,0,0.0,0.0,89,0.00,,CLR,0.00,VWS V14.01,2013-06-15 06:32:00,
2013-06-15 02:37:00,42.6,39.6,29.98,North,357,0.0,0.0,89,0.00,,CLR,0.00,VWS V14.01,2013-06-15 06:37:00,
2013-06-15 02:43:00,42.3,39.5,29.98,North,0,0.0,0.0,90,0.00,,CLR,0.00,VWS V14.01,2013-06-15 06:43:00,
2013-06-15 02:48:00,42.1,39.4,29.98,North,0,0.0,0.0,90,0.00,,CLR,0.00,VWS V14.01,2013-06-15 06:48:00,
2013-06-15 02:53:00,42.1,39.4,29.98,North,0,0.0,0.0,90,0.00,,CLR,0.00,VWS V14.01,2013-06-15 06:53:00,
2013-06-15 02:58:00,42.1,39.4,29.98,North,0,0.0,0.0,90,0.00,,CLR,0.00,VWS V14.01,2013-06-15 06:58:00,
2013-06-15 03:03:00,41.9,39.5,29.98,North,0,0.0,0.0,91,0.00,,CLR,0.00,VWS V14.01,2013-06-15 07:03:00,
2013-06-15 03:08:00,41.9,39.5,29.98,North,0,0.0,0.0,91,0.00,,CLR,0.00,VWS V14.01,2013-06-15 07:08:00,
2013-06-15 03:13:00,41.9,39.5,29.98,North,0,0.0,0.0,91,0.00,,CLR,0.00,VWS V14.01,2013-06-15 07:13:00,
2013-06-15 03:18:00,41.7,39.3,29.98,North,0,0.0,0.0,91,0.00,,CLR,0.00,VWS V14.01,2013-06-15 07:18:00,
2013-06-15 03:23:00,41.7,39.3,29.98,North,0,0.0,0.0,91,0.00,,CLR,0.00,VWS V14.01,2013-06-15 07:23:00,
2013-06-15 03:28:00,41.4,39.2,30.01,North,0,0.0,0.0,92,0.00,,CLR,0.00,VWS V14.01,2013-06-15 07:28:00,
2013-06-15 03:33:00,41.2,39.0,30.01,North,0,0.0,0.0,92,0.00,,CLR,0.00,VWS V14.01,2013-06-15 07:33:00,
2013-06-15 03:38:00,41.2,39.0,30.01,North,0,0.0,0.0,92,0.00,,CLR,0.00,VWS V14.01,2013-06-15 07:38:00,
2013-06-15 03:43:00,41.0,38.9,30.01,North,0,0.0,0.0,92,0.00,,CLR,0.00,VWS V14.01,2013-06-15 07:43:00,
2013-06-15 03:48:00,41.0,38.9,30.01,North,0,0.0,0.0,92,0.00,,CLR,0.00,VWS V14.01,2013-06-15 07:48:00,
2013-06-15 03:53:00,41.0,38.9,30.01,North,0,0.0,0.0,92,0.00,,CLR,0.00,VWS V14.01,2013-06-15 07:53:00,
2013-06-15 03:58:00,41.0,38.9,30.01,North,0,0.0,0.0,92,0.00,,CLR,0.00,VWS V14.01,2013-06-15 07:58:00,
2013-06-15 04:03:00,40.6,38.8,29.98,North,0,0.0,0.0,93,0.00,,CLR,0.00,VWS V14.01,2013-06-15 08:03:00,
2013-06-15 04:08:00,40.6,38.8,29.98,North,0,0.0,0.0,93,0.00,,CLR,0.00,VWS V14.01,2013-06-15 08:08:00,
2013-06-15 04:13:00,40.5,38.6,29.98,North,0,0.0,0.0,93,0.00,,CLR,0.00,VWS V14.01,2013-06-15 08:13:00,
2013-06-15 04:18:00,40.5,38.6,29.98,North,0,0.0,0.0,93,0.00,,CLR,0.00,VWS V14.01,2013-06-15 08:18:00,
2013-06-15 04:23:00,40.5,38.6,29.98,North,0,0.0,0.0,93,0.00,,CLR,0.00,VWS V14.01,2013-06-15 08:23:00,
2013-06-15 04:28:00,40.1,38.2,29.98,North,0,0.0,0.0,93,0.00,,CLR,0.00,VWS V14.01,2013-06-15 08:28:00,
2013-06-15 04:33:00,40.1,38.2,29.98,North,0,0.0,0.0,93,0.00,,CLR,0.00,VWS V14.01,2013-06-15 08:33:00,
2013-06-15 04:38:00,39.9,38.1,29.98,North,0,0.0,0.0,93,0.00,,CLR,0.00,VWS V14.01,2013-06-15 08:38:00,
2013-06-15 04:43:00,39.9,38.1,29.98,North,0,0.0,0.0,93,0.00,,CLR,0.00,VWS V14.01,2013-06-15 08:43:00,
2013-06-15 04:49:00,39.9,38.1,29.98,North,0,0.0,0.0,93,0.00,,CLR,0.00,VWS V14.01,2013-06-15 08:49:00,
2013-06-15 04:54:00,39.9,38.1,29.98,North,0,0.0,0.0,93,0.00,,CLR,0.00,VWS V14.01,2013-06-15 08:54:00,
2013-06-15 04:59:00,39.4,37.5,29.98,North,0,0.0,0.0,93,0.00,,CLR,0.00,VWS V14.01,2013-06-15 08:59:00,
2013-06-15 05:04:00,39.4,37.5,29.98,North,0,0.0,0.0,93,0.00,,CLR,0.00,VWS V14.01,2013-06-15 09:04:00,
2013-06-15 05:09:00,39.4,37.5,29.98,North,0,0.0,0.0,93,0.00,,CLR,0.00,VWS V14.01,2013-06-15 09:09:00,
2013-06-15 05:14:00,39.2,37.6,29.98,North,0,0.0,0.0,94,0.00,,CLR,0.00,VWS V14.01,2013-06-15 09:14:00,
2013-06-15 05:19:00,39.2,37.6,29.98,North,0,0.0,0.0,94,0.00,,CLR,0.00,VWS V14.01,2013-06-15 09:19:00,
2013-06-15 05:24:00,39.0,37.4,29.98,North,0,0.0,0.0,94,0.00,,CLR,0.00,VWS V14.01,2013-06-15 09:24:00,
2013-06-15 05:29:00,39.0,37.4,29.98,North,0,0.0,0.0,94,0.00,,CLR,0.00,VWS V14.01,2013-06-15 09:29:00,
2013-06-15 05:34:00,39.0,37.4,29.98,North,0,0.0,0.0,94,0.00,,CLR,0.00,VWS V14.01,2013-06-15 09:34:00,
2013-06-15 05:39:00,39.0,37.4,29.98,North,0,0.0,0.0,94,0.00,,CLR,0.00,VWS V14.01,2013-06-15 09:39:00,
2013-06-15 05:44:00,38.8,37.3,29.98,North,0,0.0,0.0,94,0.00,,CLR,0.00,VWS V14.01,2013-06-15 09:44:00,
2013-06-15 05:49:00,38.8,37.3,29.98,North,0,0.0,0.0,94,0.00,,CLR,0.00,VWS V14.01,2013-06-15 09:49:00,
2013-06-15 05:54:00,38.8,37.3,29.98,North,0,0.0,0.0,94,0.00,,,0.00,VWS V14.01,2013-06-15 09:54:00,
2013-06-15 05:59:00,38.8,37.5,29.98,North,0,0.0,0.0,95,0.00,,,0.00,VWS V14.01,2013-06-15 09:59:00,
2013-06-15 06:04:00,39.0,37.7,29.98,North,0,0.0,0.0,95,0.00,,,0.00,VWS V14.01,2013-06-15 10:04:00,
2013-06-15 06:09:00,39.2,37.9,29.98,North,0,0.0,0.0,95,0.00,,,0.00,VWS V14.01,2013-06-15 10:09:00,
2013-06-15 06:14:00,39.2,37.9,29.98,North,0,0.0,0.0,95,0.00,,,0.00,VWS V14.01,2013-06-15 10:14:00,
2013-06-15 06:19:00,39.4,38.1,29.98,North,0,0.0,0.0,95,0.00,,,0.00,VWS V14.01,2013-06-15 10:19:00,
2013-06-15 06:24:00,39.6,38.2,29.98,North,0,0.0,0.0,95,0.00,,,0.00,VWS V14.01,2013-06-15 10:24:00,
2013-06-15 06:29:00,39.6,38.2,29.98,North,0,0.0,0.0,95,0.00,,,0.00,VWS V14.01,2013-06-15 10:29:00,
2013-06-15 06:34:00,40.3,39.0,29.98,North,0,0.0,0.0,95,0.00,,,0.00,VWS V14.01,2013-06-15 10:34:00,
2013-06-15 06:39:00,40.5,39.1,29.98,North,0,0.0,0.0,95,0.00,,,0.00,VWS V14.01,2013-06-15 10:39:00,
2013-06-15 06:44:00,40.5,39.1,29.98,North,0,0.0,0.0,95,0.00,,,0.00,VWS V14.01,2013-06-15 10:44:00,
2013-06-15 06:49:00,40.5,39.1,29.98,North,0,0.0,0.0,95,0.00,,,0.00,VWS V14.01,2013-06-15 10:49:00,
2013-06-15 06:54:00,40.5,39.1,29.98,North,0,0.0,0.0,95,0.00,,,0.00,VWS V14.01,2013-06-15 10:54:00,
2013-06-15 06:59:00,42.1,41.0,29.98,North,0,0.0,0.0,96,0.00,,,0.00,VWS V14.01,2013-06-15 10:59:00,
2013-06-15 07:04:00,43.7,42.6,29.98,North,0,0.0,0.0,96,0.00,,,0.00,VWS V14.01,2013-06-15 11:04:00,
2013-06-15 07:10:00,43.7,42.6,29.98,North,0,0.0,0.0,96,0.00,,,0.00,VWS V14.01,2013-06-15 11:10:00,
2013-06-15 07:15:00,43.7,42.6,29.98,North,0,0.0,0.0,96,0.00,,,0.00,VWS V14.01,2013-06-15 11:15:00,
2013-06-15 07:20:00,47.5,46.4,29.98,North,0,0.0,0.0,96,0.00,,,0.00,VWS V14.01,2013-06-15 11:20:00,
2013-06-15 07:25:00,47.7,46.8,29.98,North,0,0.0,0.0,97,0.00,,,0.00,VWS V14.01,2013-06-15 11:25:00,
2013-06-15 07:30:00,47.7,46.8,29.98,North,0,0.0,0.0,97,0.00,,,0.00,VWS V14.01,2013-06-15 11:30:00,
2013-06-15 07:35:00,50.7,49.9,29.98,North,0,0.0,0.0,97,0.00,,,0.00,VWS V14.01,2013-06-15 11:35:00,
2013-06-15 07:40:00,50.7,49.9,30.04,North,0,0.0,0.0,97,0.00,,,0.00,VWS V14.01,2013-06-15 11:40:00,
2013-06-15 07:45:00,52.3,51.0,30.04,North,0,0.0,0.0,95,0.00,,,0.00,VWS V14.01,2013-06-15 11:45:00,
2013-06-15 07:50:00,52.3,51.0,30.04,North,0,0.0,0.0,95,0.00,,,0.00,VWS V14.01,2013-06-15 11:50:00,
2013-06-15 07:55:00,54.3,51.5,30.04,North,0,0.0,0.0,90,0.00,,CLR,0.00,VWS V14.01,2013-06-15 11:55:00,
2013-06-15 08:00:00,54.3,51.5,30.04,North,0,0.0,0.0,90,0.00,,CLR,0.00,VWS V14.01,2013-06-15 12:00:00,
2013-06-15 08:05:00,55.9,51.2,30.04,North,0,0.0,0.0,84,0.00,,CLR,0.00,VWS V14.01,2013-06-15 12:05:00,
2013-06-15 08:10:00,56.5,51.1,30.04,North,0,0.0,0.0,82,0.00,,CLR,0.00,VWS V14.01,2013-06-15 12:10:00,
2013-06-15 08:15:00,56.8,51.1,30.04,North,0,0.0,0.0,81,0.00,,CLR,0.00,VWS V14.01,2013-06-15 12:15:00,
2013-06-15 08:20:00,56.8,51.1,30.04,North,0,0.0,0.0,81,0.00,,CLR,0.00,VWS V14.01,2013-06-15 12:20:00,
2013-06-15 08:25:00,56.8,51.1,30.04,North,0,0.0,0.0,81,0.00,,CLR,0.00,VWS V14.01,2013-06-15 12:25:00,
2013-06-15 08:30:00,59.9,54.7,30.04,North,0,0.0,0.0,83,0.00,,CLR,0.00,VWS V14.01,2013-06-15 12:30:00,
2013-06-15 08:35:00,59.9,54.7,30.04,North,0,0.0,0.0,83,0.00,,CLR,0.00,VWS V14.01,2013-06-15 12:35:00,
2013-06-15 08:40:00,60.6,54.1,30.04,North,0,0.0,0.0,79,0.00,,CLR,0.00,VWS V14.01,2013-06-15 12:40:00,
2013-06-15 08:45:00,60.6,54.1,30.04,SSE,158,0.0,0.0,79,0.00,,CLR,0.00,VWS V14.01,2013-06-15 12:45:00,
2013-06-15 08:50:00,61.3,54.1,30.04,South,180,0.0,0.0,77,0.00,,CLR,0.12,VWS V14.01,2013-06-15 12:50:00,
2013-06-15 08:55:00,61.7,53.7,30.04,South,181,0.0,0.0,75,0.00,,CLR,0.00,VWS V14.01,2013-06-15 12:55:00,
2013-06-15 09:00:00,62.2,53.5,30.04,South,181,0.0,0.0,73,0.00,,CLR,0.00,VWS V14.01,2013-06-15 13:00:00,
2013-06-15 09:05:00,63.0,53.8,30.04,South,170,0.0,0.0,72,0.00,,CLR,0.00,VWS V14.01,2013-06-15 13:05:00,
2013-06-15 09:10:00,63.0,53.8,30.04,South,171,0.0,0.0,72,0.00,,CLR,0.00,VWS V14.01,2013-06-15 13:10:00,
2013-06-15 09:15:00,63.0,53.8,30.04,SSE,168,0.0,0.0,72,0.00,,CLR,0.00,VWS V14.01,2013-06-15 13:15:00,
2013-06-15 09:20:00,61.3,46.5,30.04,SSE,147,2.7,3.1,58,0.00,,CLR,0.00,VWS V14.01,2013-06-15 13:20:00,
2013-06-15 09:26:00,60.8,44.1,30.04,SSE,147,0.0,3.1,54,0.00,,CLR,0.00,VWS V14.01,2013-06-15 13:26:00,
2013-06-15 09:31:00,60.8,42.6,30.04,SSW,204,0.0,3.6,51,0.00,,CLR,0.00,VWS V14.01,2013-06-15 13:31:00,
2013-06-15 09:36:00,60.8,42.6,30.04,SSE,154,4.0,4.0,51,0.00,,CLR,0.00,VWS V14.01,2013-06-15 13:36:00,
2013-06-15 09:41:00,61.2,39.1,30.04,SSE,164,4.0,4.0,44,0.00,,CLR,0.00,VWS V14.01,2013-06-15 13:41:00,
2013-06-15 09:46:00,61.2,39.1,30.04,SSE,168,4.9,4.9,44,0.00,,CLR,0.00,VWS V14.01,2013-06-15 13:46:00,
2013-06-15 09:51:00,62.8,38.8,30.04,South,169,3.1,3.1,41,0.00,,CLR,0.00,VWS V14.01,2013-06-15 13:51:00,
2013-06-15 09:56:00,62.8,38.8,30.04,SW,217,0.0,3.1,41,0.00,,CLR,0.00,VWS V14.01,2013-06-15 13:56:00,
2013-06-15 10:01:00,64.6,38.4,30.04,North,357,0.0,0.0,38,0.00,,CLR,0.00,VWS V14.01,2013-06-15 14:01:00,
2013-06-15 10:06:00,65.1,37.5,30.04,South,177,3.1,5.8,36,0.00,,CLR,0.00,VWS V14.01,2013-06-15 14:06:00,
2013-06-15 10:11:00,65.1,37.5,30.04,South,177,3.1,3.1,36,0.00,,CLR,0.00,VWS V14.01,2013-06-15 14:11:00,
2013-06-15 10:16:00,65.1,37.5,30.04,SW,228,0.0,3.6,36,0.00,,CLR,0.00,VWS V14.01,2013-06-15 14:16:00,
2013-06-15 10:21:00,65.1,37.5,30.04,ESE,111,0.0,0.0,36,0.00,,CLR,0.00,VWS V14.01,2013-06-15 14:21:00,
2013-06-15 10:26:00,65.1,37.5,30.04,South,186,3.6,4.0,36,0.00,,CLR,0.00,VWS V14.01,2013-06-15 14:26:00,
2013-06-15 10:31:00,66.4,36.4,30.04,WNW,298,0.0,3.1,33,0.00,,CLR,0.00,VWS V14.01,2013-06-15 14:31:00,
2013-06-15 10:36:00,66.4,36.4,30.04,NNW,336,2.2,3.1,33,0.00,,CLR,0.00,VWS V14.01,2013-06-15 14:36:00,
2013-06-15 10:41:00,66.2,36.3,30.04,SSW,198,0.0,3.6,33,0.00,,CLR,0.00,VWS V14.01,2013-06-15 14:41:00,
2013-06-15 10:46:00,66.2,36.3,30.04,SSE,149,0.0,3.6,33,0.00,,CLR,0.00,VWS V14.01,2013-06-15 14:46:00,
2013-06-15 10:51:00,67.5,37.4,30.04,NW,308,0.0,0.0,33,0.00,,CLR,0.00,VWS V14.01,2013-06-15 14:51:00,
2013-06-15 10:56:00,67.5,37.4,30.04,SSW,207,2.7,4.9,33,0.00,,CLR,0.00,VWS V14.01,2013-06-15 14:56:00,
2013-06-15 11:01:00,67.1,37.1,30.04,SW,220,4.0,5.4,33,0.00,,CLR,0.00,VWS V14.01,2013-06-15 15:01:00,
2013-06-15 11:06:00,67.5,36.6,30.04,NNE,22,4.9,5.4,32,0.00,,CLR,0.00,VWS V14.01,2013-06-15 15:06:00,
2013-06-15 11:11:00,67.5,36.6,30.04,West,279,3.6,3.6,32,0.00,,CLR,0.00,VWS V14.01,2013-06-15 15:11:00,
2013-06-15 11:16:00,67.5,36.6,30.04,NW,323,3.6,4.0,32,0.00,,CLR,0.00,VWS V14.01,2013-06-15 15:16:00,
2013-06-15 11:22:00,67.5,36.6,30.04,SSW,197,4.0,4.0,32,0.00,,CLR,0.00,VWS V14.01,2013-06-15 15:22:00,
2013-06-15 11:27:00,67.5,35.8,30.04,SSE,167,5.8,6.3,31,0.00,,CLR,0.00,VWS V14.01,2013-06-15 15:27:00,
2013-06-15 11:32:00,67.6,36.0,30.04,SW,219,2.7,4.0,31,0.00,,CLR,0.00,VWS V14.01,2013-06-15 15:32:00,
2013-06-15 11:37:00,67.6,36.0,30.04,South,180,0.0,6.3,31,0.00,,CLR,0.00,VWS V14.01,2013-06-15 15:37:00,
2013-06-15 11:42:00,68.4,35.8,30.04,SSE,157,2.7,3.1,30,0.00,,CLR,0.00,VWS V14.01,2013-06-15 15:42:00,
2013-06-15 11:47:00,68.4,35.8,30.04,SSW,196,3.1,4.9,30,0.00,,CLR,0.00,VWS V14.01,2013-06-15 15:47:00,
2013-06-15 11:52:00,68.4,34.9,30.04,SSE,162,5.4,8.1,29,0.00,,FEW060,0.00,VWS V14.01,2013-06-15 15:52:00,
2013-06-15 11:57:00,68.2,34.7,30.04,North,9,7.2,8.1,29,0.00,,FEW060,0.00,VWS V14.01,2013-06-15 15:57:00,
2013-06-15 12:02:00,68.4,34.0,30.04,South,189,6.3,6.3,28,0.00,,FEW060,0.00,VWS V14.01,2013-06-15 16:02:00,
2013-06-15 12:07:00,68.4,34.0,30.04,North,3,5.4,6.3,28,0.00,,FEW060,0.00,VWS V14.01,2013-06-15 16:07:00,
2013-06-15 12:12:00,68.4,34.0,30.04,NNW,341,9.2,9.2,28,0.00,,FEW060,0.00,VWS V14.01,2013-06-15 16:12:00,
2013-06-15 12:17:00,67.6,36.0,30.04,WSW,257,4.9,9.2,31,0.00,,FEW060,0.00,VWS V14.01,2013-06-15 16:17:00,
2013-06-15 12:22:00,67.6,36.0,30.04,NNE,16,3.1,11.0,31,0.00,,FEW060,0.00,VWS V14.01,2013-06-15 16:22:00,
2013-06-15 12:27:00,67.6,36.0,30.04,South,175,5.4,11.0,31,0.00,,FEW060,0.00,VWS V14.01,2013-06-15 16:27:00,
2013-06-15 12:32:00,67.6,36.0,30.04,SSW,195,2.7,5.4,31,0.00,,FEW060,0.00,VWS V14.01,2013-06-15 16:32:00,
2013-06-15 12:37:00,67.6,36.0,30.04,North,353,7.2,7.2,31,0.00,,FEW060,0.00,VWS V14.01,2013-06-15 16:37:00,
2013-06-15 12:42:00,68.7,35.2,30.04,South,190,2.7,5.8,29,0.00,,FEW060,0.00,VWS V14.01,2013-06-15 16:42:00,
2013-06-15 12:47:00,68.7,36.1,30.04,SSE,167,3.1,5.8,30,0.00,,FEW060,0.00,VWS V14.01,2013-06-15 16:47:00,
2013-06-15 12:52:00,69.4,35.0,30.04,SSE,150,4.0,4.0,28,0.00,,FEW065,0.00,VWS V14.01,2013-06-15 16:52:00,
2013-06-15 12:57:00,69.6,35.1,30.04,WNW,293,0.0,4.0,28,0.00,,FEW065,0.00,VWS V14.01,2013-06-15 16:57:00,
2013-06-15 13:02:00,69.4,35.0,30.04,SW,217,3.6,3.6,28,0.00,,FEW065,0.00,VWS V14.01,2013-06-15 17:02:00,
2013-06-15 13:07:00,69.3,34.8,30.04,North,357,5.8,9.6,28,0.00,,FEW065,0.00,VWS V14.01,2013-06-15 17:07:00,
2013-06-15 13:12:00,68.9,34.5,30.04,WNW,285,4.0,4.0,28,0.00,,FEW065,0.00,VWS V14.01,2013-06-15 17:12:00,
2013-06-15 13:17:00,69.1,36.4,30.04,South,183,5.8,5.8,30,0.00,,FEW065,0.00,VWS V14.01,2013-06-15 17:17:00,
2013-06-15 13:22:00,69.3,34.8,30.01,SW,214,3.6,10.1,28,0.00,,FEW065,0.00,VWS V14.01,2013-06-15 17:22:00,
2013-06-15 13:27:00,69.1,35.5,30.01,SW,217,6.3,10.1,29,0.00,,FEW065,0.00,VWS V14.01,2013-06-15 17:27:00,
2013-06-15 13:33:00,69.1,35.5,30.01,WNW,291,10.1,10.1,29,0.00,,FEW065,0.00,VWS V14.01,2013-06-15 17:33:00,
2013-06-15 13:38:00,69.1,34.6,30.01,SSW,206,3.6,10.1,28,0.00,,FEW065,0.00,VWS V14.01,2013-06-15 17:38:00,
2013-06-15 13:43:00,69.4,35.0,30.01,SSW,192,7.2,7.2,28,0.00,,FEW065,0.00,VWS V14.01,2013-06-15 17:43:00,
2013-06-15 13:48:00,69.4,35.8,30.01,NW,321,5.8,7.6,29,0.00,,FEW065,0.00,VWS V14.01,2013-06-15 17:48:00,
2013-06-15 13:53:00,69.1,33.7,30.01,NW,308,2.7,3.1,27,0.00,,FEW065,0.00,VWS V14.01,2013-06-15 17:53:00,
2013-06-15 13:58:00,68.9,33.6,30.01,WSW,249,2.7,3.1,27,0.00,,FEW065,0.00,VWS V14.01,2013-06-15 17:58:00,
2013-06-15 14:03:00,69.1,33.7,30.01,WNW,302,3.6,8.1,27,0.00,,FEW065,0.00,VWS V14.01,2013-06-15 18:03:00,
2013-06-15 14:08:00,69.1,33.7,30.01,North,5,4.9,8.1,27,0.00,,FEW065,0.00,VWS V14.01,2013-06-15 18:08:00,
2013-06-15 14:13:00,69.1,33.7,30.01,NNW,345,5.4,5.4,27,0.00,,FEW065,0.00,VWS V14.01,2013-06-15 18:13:00,
2013-06-15 14:18:00,69.1,33.7,30.01,NNE,14,5.8,8.7,27,0.00,,FEW065,0.00,VWS V14.01,2013-06-15 18:18:00,
2013-06-15 14:23:00,69.3,34.8,30.01,SSE,152,6.3,6.7,28,0.00,,FEW065,0.00,VWS V14.01,2013-06-15 18:23:00,
2013-06-15 14:28:00,69.3,34.8,30.01,NNW,327,8.1,8.1,28,0.00,,FEW065,0.00,VWS V14.01,2013-06-15 18:28:00,
2013-06-15 14:33:00,69.3,34.8,30.01,SSW,192,0.0,4.0,28,0.00,,FEW065,0.00,VWS V14.01,2013-06-15 18:33:00,
2013-06-15 14:38:00,69.3,34.8,30.01,SSW,210,5.8,5.8,28,0.00,,FEW065,0.00,VWS V14.01,2013-06-15 18:38:00,
2013-06-15 14:43:00,70.0,35.4,30.01,South,178,3.6,3.6,28,0.00,,FEW065,0.00,VWS V14.01,2013-06-15 18:43:00,
2013-06-15 14:48:00,70.5,35.0,30.01,SSW,204,0.0,5.8,27,0.00,,FEW065,0.00,VWS V14.01,2013-06-15 18:48:00,
2013-06-15 14:53:00,70.5,35.0,30.01,SW,223,5.8,5.8,27,0.00,,SCT065,0.00,VWS V14.01,2013-06-15 18:53:00,
2013-06-15 14:58:00,70.0,33.5,30.01,North,350,3.1,7.6,26,0.00,,SCT065,0.00,VWS V14.01,2013-06-15 18:58:00,
2013-06-15 15:03:00,70.0,33.5,30.01,North,6,0.0,0.0,26,0.00,,SCT065,0.00,VWS V14.01,2013-06-15 19:03:00,
2013-06-15 15:08:00,70.3,34.8,30.01,WNW,292,8.7,8.7,27,0.00,,SCT065,0.00,VWS V14.01,2013-06-15 19:08:00,
2013-06-15 15:13:00,70.3,34.8,30.01,NNW,329,3.1,5.4,27,0.00,,SCT065,0.00,VWS V14.01,2013-06-15 19:13:00,
2013-06-15 15:18:00,70.2,34.7,30.01,WSW,239,0.0,5.4,27,0.00,,SCT065,0.00,VWS V14.01,2013-06-15 19:18:00,
2013-06-15 15:23:00,70.2,34.7,30.01,SSE,167,2.2,5.8,27,0.00,,SCT065,0.00,VWS V14.01,2013-06-15 19:23:00,
2013-06-15 15:28:00,70.3,34.8,30.01,SSE,153,4.9,5.8,27,0.00,,SCT065,0.00,VWS V14.01,2013-06-15 19:28:00,
2013-06-15 15:33:00,70.3,34.8,30.01,North,8,2.7,2.7,27,0.00,,SCT065,0.00,VWS V14.01,2013-06-15 19:33:00,
2013-06-15 15:38:00,70.3,34.8,30.01,NW,320,3.6,7.6,27,0.00,,SCT065,0.00,VWS V14.01,2013-06-15 19:38:00,
2013-06-15 15:44:00,70.3,34.8,30.01,South,181,5.4,5.4,27,0.00,,SCT065,0.00,VWS V14.01,2013-06-15 19:44:00,
2013-06-15 15:49:00,70.3,34.8,30.01,NE,41,0.0,5.4,27,0.00,,SCT065,0.00,VWS V14.01,2013-06-15 19:49:00,
2013-06-15 15:54:00,70.3,34.8,30.01,NNW,342,2.7,5.8,27,0.00,,FEW070,0.00,VWS V14.01,2013-06-15 19:54:00,
2013-06-15 15:59:00,70.0,35.4,30.01,WSW,238,4.9,5.8,28,0.00,,FEW070,0.00,VWS V14.01,2013-06-15 19:59:00,
2013-06-15 16:04:00,70.0,35.4,30.01,NNW,340,2.7,4.9,28,0.00,,FEW070,0.00,VWS V14.01,2013-06-15 20:04:00,
2013-06-15 16:09:00,70.0,35.4,30.01,SW,216,2.2,4.9,28,0.00,,FEW070,0.00,VWS V14.01,2013-06-15 20:09:00,
2013-06-15 16:14:00,70.0,35.4,30.01,NW,304,0.0,2.7,28,0.00,,FEW070,0.00,VWS V14.01,2013-06-15 20:14:00,
2013-06-15 16:19:00,68.9,35.4,30.01,North,353,5.8,5.8,29,0.00,,FEW070,0.00,VWS V14.01,2013-06-15 20:19:00,
2013-06-15 16:24:00,68.9,35.4,30.01,West,264,5.4,5.8,29,0.00,,FEW070,0.00,VWS V14.01,2013-06-15 20:24:00,
2013-06-15 16:29:00,68.9,35.4,30.01,South,179,0.0,5.8,29,0.00,,FEW070,0.00,VWS V14.01,2013-06-15 20:29:00,
2013-06-15 16:34:00,68.9,35.4,30.01,SSE,160,6.3,6.3,29,0.00,,FEW070,0.00,VWS V14.01,2013-06-15 20:34:00,
2013-06-15 16:39:00,68.9,35.4,30.01,NW,320,4.5,7.2,29,0.00,,FEW070,0.00,VWS V14.01,2013-06-15 20:39:00,
2013-06-15 16:44:00,68.0,34.6,30.01,WNW,287,0.0,2.2,29,0.00,,FEW070,0.00,VWS V14.01,2013-06-15 20:44:00,
2013-06-15 16:49:00,68.0,34.6,30.01,SSW,208,3.1,3.1,29,0.00,,FEW070,0.00,VWS V14.01,2013-06-15 20:49:00,
2013-06-15 16:54:00,68.0,34.6,30.01,NNW,329,3.1,3.1,29,0.00,,SCT065,0.00,VWS V14.01,2013-06-15 20:54:00,
2013-06-15 16:59:00,68.0,34.6,30.01,NE,44,2.7,3.6,29,0.00,,SCT065,0.00,VWS V14.01,2013-06-15 20:59:00,
2013-06-15 17:04:00,68.4,35.8,30.01,North,353,3.6,4.0,30,0.00,,SCT065,0.00,VWS V14.01,2013-06-15 21:04:00,
2013-06-15 17:09:00,68.4,35.8,30.01,SSE,164,3.1,4.9,30,0.00,,SCT065,0.00,VWS V14.01,2013-06-15 21:09:00,
2013-06-15 17:14:00,68.0,35.4,30.01,SSE,168,3.1,6.3,30,0.00,,SCT065,0.00,VWS V14.01,2013-06-15 21:14:00,
2013-06-15 17:19:00,68.0,35.4,30.01,WSW,249,0.0,6.3,30,0.00,,SCT065,0.00,VWS V14.01,2013-06-15 21:19:00,
2013-06-15 17:24:00,68.0,35.4,30.01,ENE,68,3.6,3.6,30,0.00,,SCT065,0.00,VWS V14.01,2013-06-15 21:24:00,
2013-06-15 17:29:00,68.2,35.6,30.01,North,1,4.0,7.6,30,0.00,,SCT065,0.00,VWS V14.01,2013-06-15 21:29:00,
2013-06-15 17:34:00,68.2,35.6,30.01,NW,322,0.0,8.1,30,0.00,,SCT065,0.00,VWS V14.01,2013-06-15 21:34:00,
2013-06-15 17:39:00,68.2,35.6,30.01,SSE,150,0.0,8.1,30,0.00,,SCT065,0.00,VWS V14.01,2013-06-15 21:39:00,
2013-06-15 17:44:00,68.2,35.6,30.01,West,279,2.7,5.8,30,0.00,,SCT065,0.00,VWS V14.01,2013-06-15 21:44:00,
2013-06-15 17:49:00,68.2,35.6,30.01,NW,322,2.7,5.8,30,0.00,,SCT065,0.00,VWS V14.01,2013-06-15 21:49:00,
2013-06-15 17:54:00,67.8,35.3,30.01,North,353,4.0,5.8,30,0.00,,SCT065,0.00,VWS V14.01,2013-06-15 21:54:00,
2013-06-15 17:59:00,67.8,35.3,30.01,SW,214,3.1,5.8,30,0.00,,SCT065,0.00,VWS V14.01,2013-06-15 21:59:00,
2013-06-15 18:04:00,67.8,35.3,30.01,WSW,253,0.0,3.1,30,0.00,,SCT065,0.00,VWS V14.01,2013-06-15 22:04:00,
2013-06-15 18:09:00,67.8,35.3,30.01,South,182,0.0,3.1,30,0.00,,SCT065,0.00,VWS V14.01,2013-06-15 22:09:00,
2013-06-15 18:14:00,68.0,36.3,30.01,WSW,239,0.0,0.0,31,0.00,,SCT065,0.00,VWS V14.01,2013-06-15 22:14:00,
2013-06-15 18:19:00,68.0,35.4,30.01,North,11,2.7,2.7,30,0.00,,SCT065,0.00,VWS V14.01,2013-06-15 22:19:00,
2013-06-15 18:25:00,68.0,35.4,30.01,NW,325,3.1,4.0,30,0.00,,SCT065,0.00,VWS V14.01,2013-06-15 22:25:00,
2013-06-15 18:30:00,68.0,35.4,30.01,SSW,205,0.0,4.0,30,0.00,,SCT065,0.00,VWS V14.01,2013-06-15 22:30:00,
2013-06-15 18:35:00,68.0,35.4,30.01,SW,225,0.0,3.1,30,0.00,,SCT065,0.00,VWS V14.01,2013-06-15 22:35:00,
2013-06-15 18:40:00,66.7,35.2,30.01,West,263,2.7,3.1,31,0.00,,SCT065,0.00,VWS V14.01,2013-06-15 22:40:00,
2013-06-15 18:45:00,66.7,35.2,30.01,South,171,3.1,4.9,31,0.00,,SCT065,0.00,VWS V14.01,2013-06-15 22:45:00,
2013-06-15 18:50:00,66.7,35.2,29.98,SSW,209,0.0,4.9,31,0.00,,SCT065,0.00,VWS V14.01,2013-06-15 22:50:00,
2013-06-15 18:55:00,66.7,35.2,29.98,NNW,343,3.1,3.1,31,0.00,,FEW060,0.00,VWS V14.01,2013-06-15 22:55:00,
2013-06-15 19:00:00,66.7,35.2,29.98,NNW,343,0.0,3.1,31,0.00,,FEW060,0.00,VWS V14.01,2013-06-15 23:00:00,
2013-06-15 19:05:00,66.0,35.3,29.98,West,280,0.0,0.0,32,0.00,,FEW060,0.00,VWS V14.01,2013-06-15 23:05:00,
2013-06-15 19:10:00,65.8,35.2,29.98,SW,214,0.0,0.0,32,0.00,,FEW060,0.00,VWS V14.01,2013-06-15 23:10:00,
2013-06-15 19:15:00,65.8,36.0,29.98,SW,216,0.0,0.0,33,0.00,,FEW060,0.00,VWS V14.01,2013-06-15 23:15:00,
2013-06-15 19:20:00,65.8,36.0,29.98,SW,218,0.0,0.0,33,0.00,,FEW060,0.00,VWS V14.01,2013-06-15 23:20:00,
2013-06-15 19:25:00,65.5,35.6,29.98,SW,220,0.0,0.0,33,0.00,,FEW060,0.00,VWS V14.01,2013-06-15 23:25:00,
2013-06-15 19:30:00,65.1,35.3,29.98,SW,224,0.0,0.0,33,0.00,,FEW060,0.00,VWS V14.01,2013-06-15 23:30:00,
2013-06-15 19:35:00,65.1,35.3,29.98,SW,232,0.0,2.2,33,0.00,,FEW060,0.00,VWS V14.01,2013-06-15 23:35:00,
2013-06-15 19:40:00,65.1,35.3,29.98,SW,228,0.0,0.0,33,0.00,,FEW060,0.00,VWS V14.01,2013-06-15 23:40:00,
2013-06-15 19:45:00,65.1,35.3,29.98,SW,228,2.7,2.7,33,0.00,,FEW060,0.00,VWS V14.01,2013-06-15 23:45:00,
2013-06-15 19:50:00,64.0,35.9,29.98,SW,228,0.0,0.0,35,0.00,,FEW060,0.00,VWS V14.01,2013-06-15 23:50:00,
2013-06-15 19:55:00,64.0,35.9,29.98,SW,214,0.0,0.0,35,0.00,,CLR,0.00,VWS V14.01,2013-06-15 23:55:00,
2013-06-15 20:00:00,64.0,35.9,29.98,SW,219,0.0,0.0,35,0.00,,CLR,0.00,VWS V14.01,2013-06-16 00:00:00,
2013-06-15 20:05:00,63.3,35.9,29.98,SW,219,0.0,0.0,36,0.00,,CLR,0.00,VWS V14.01,2013-06-16 00:05:00,
2013-06-15 20:10:00,62.6,35.3,29.98,South,180,0.0,0.0,36,0.00,,CLR,0.12,VWS V14.01,2013-06-16 00:10:00,
2013-06-15 20:15:00,62.1,35.5,29.98,South,173,3.1,3.6,37,0.00,,CLR,0.00,VWS V14.01,2013-06-16 00:15:00,
2013-06-15 20:20:00,62.1,35.5,29.98,SSE,168,2.7,2.7,37,0.00,,CLR,0.00,VWS V14.01,2013-06-16 00:20:00,
2013-06-15 20:25:00,62.1,35.5,29.98,SSE,168,0.0,2.7,37,0.00,,CLR,0.00,VWS V14.01,2013-06-16 00:25:00,
2013-06-15 20:30:00,62.1,35.5,29.98,SSE,168,0.0,0.0,37,0.00,,CLR,0.00,VWS V14.01,2013-06-16 00:30:00,
2013-06-15 20:36:00,62.1,35.5,29.98,SSE,168,0.0,0.0,37,0.00,,CLR,0.00,VWS V14.01,2013-06-16 00:36:00,
2013-06-15 20:41:00,59.5,37.0,29.98,SSE,168,0.0,0.0,43,0.00,,CLR,0.00,VWS V14.01,2013-06-16 00:41:00,
2013-06-15 20:46:00,59.5,37.0,29.98,SSE,168,0.0,0.0,43,0.00,,CLR,0.00,VWS V14.01,2013-06-16 00:46:00,
2013-06-15 20:51:00,59.5,37.0,29.98,SSE,168,0.0,0.0,43,0.00,,CLR,0.00,VWS V14.01,2013-06-16 00:51:00,
2013-06-15 20:56:00,59.5,37.0,29.98,SSE,168,0.0,0.0,43,0.00,,CLR,0.00,VWS V14.01,2013-06-16 00:56:00,
2013-06-15 21:01:00,57.6,38.0,29.98,SSE,168,0.0,0.0,48,0.00,,CLR,0.00,VWS V14.01,2013-06-16 01:01:00,
2013-06-15 21:06:00,57.0,38.1,29.98,SSE,168,0.0,0.0,49,0.00,,CLR,0.00,VWS V14.01,2013-06-16 01:06:00,
2013-06-15 21:11:00,57.0,38.1,29.98,SSE,168,0.0,0.0,49,0.00,,CLR,0.00,VWS V14.01,2013-06-16 01:11:00,
2013-06-15 21:16:00,56.1,37.8,29.98,SSE,168,0.0,0.0,50,0.00,,CLR,0.00,VWS V14.01,2013-06-16 01:16:00,
2013-06-15 21:21:00,56.1,37.8,29.98,SSE,168,0.0,0.0,50,0.00,,CLR,0.00,VWS V14.01,2013-06-16 01:21:00,
2013-06-15 21:26:00,55.6,37.8,29.98,SSE,168,0.0,0.0,51,0.00,,CLR,0.00,VWS V14.01,2013-06-16 01:26:00,
2013-06-15 21:31:00,55.6,37.8,29.98,SSE,168,0.0,0.0,51,0.00,,CLR,0.00,VWS V14.01,2013-06-16 01:31:00,
2013-06-15 21:36:00,55.6,37.8,29.98,SSE,168,0.0,0.0,51,0.00,,CLR,0.00,VWS V14.01,2013-06-16 01:36:00,
2013-06-15 21:41:00,55.6,37.8,29.98,SSE,168,0.0,0.0,51,0.00,,CLR,0.00,VWS V14.01,2013-06-16 01:41:00,
2013-06-15 21:46:00,53.6,38.8,29.98,SSE,168,0.0,0.0,57,0.00,,CLR,0.00,VWS V14.01,2013-06-16 01:46:00,
2013-06-15 21:51:00,53.6,38.8,29.98,SSE,168,0.0,0.0,57,0.00,,CLR,0.00,VWS V14.01,2013-06-16 01:51:00,
2013-06-15 21:56:00,53.1,38.7,29.98,SSE,168,0.0,0.0,58,0.00,,CLR,0.00,VWS V14.01,2013-06-16 01:56:00,
2013-06-15 22:01:00,53.1,38.7,29.98,SSE,168,0.0,0.0,58,0.00,,CLR,0.00,VWS V14.01,2013-06-16 02:01:00,
2013-06-15 22:06:00,52.3,38.9,29.98,SSE,168,0.0,0.0,60,0.00,,CLR,0.00,VWS V14.01,2013-06-16 02:06:00,
2013-06-15 22:11:00,52.2,39.1,29.98,SSE,168,0.0,0.0,61,0.00,,CLR,0.00,VWS V14.01,2013-06-16 02:11:00,
2013-06-15 22:16:00,51.8,39.2,29.98,SSE,168,0.0,0.0,62,0.00,,CLR,0.00,VWS V14.01,2013-06-16 02:16:00,
2013-06-15 22:21:00,51.6,39.5,29.98,SSE,168,0.0,0.0,63,0.00,,CLR,0.00,VWS V14.01,2013-06-16 02:21:00,
2013-06-15 22:26:00,51.6,39.5,29.98,SSE,168,0.0,0.0,63,0.00,,CLR,0.00,VWS V14.01,2013-06-16 02:26:00,
2013-06-15 22:31:00,51.3,39.9,29.98,SSE,168,0.0,0.0,65,0.00,,CLR,0.00,VWS V14.01,2013-06-16 02:31:00,
2013-06-15 22:36:00,51.1,40.1,29.98,SSE,168,0.0,0.0,66,0.00,,CLR,0.00,VWS V14.01,2013-06-16 02:36:00,
2013-06-15 22:41:00,50.7,40.2,29.98,SSE,168,0.0,0.0,67,0.00,,CLR,0.00,VWS V14.01,2013-06-16 02:41:00,
2013-06-15 22:46:00,50.7,40.2,29.98,SSE,168,0.0,0.0,67,0.00,,CLR,0.00,VWS V14.01,2013-06-16 02:46:00,
2013-06-15 22:52:00,50.7,40.2,29.98,SSE,168,0.0,0.0,67,0.00,,CLR,0.00,VWS V14.01,2013-06-16 02:52:00,
2013-06-15 22:57:00,50.2,40.4,29.98,SSE,168,0.0,0.0,69,0.00,,CLR,0.00,VWS V14.01,2013-06-16 02:57:00,
2013-06-15 23:02:00,50.2,40.4,29.98,SSE,168,0.0,0.0,69,0.00,,CLR,0.00,VWS V14.01,2013-06-16 03:02:00,
2013-06-15 23:07:00,50.0,40.6,29.98,SSE,168,0.0,0.0,70,0.00,,CLR,0.00,VWS V14.01,2013-06-16 03:07:00,
2013-06-15 23:12:00,50.0,40.6,29.98,SSE,168,0.0,0.0,70,0.00,,CLR,0.00,VWS V14.01,2013-06-16 03:12:00,
2013-06-15 23:17:00,50.0,40.6,29.98,SSE,168,0.0,0.0,70,0.00,,CLR,0.00,VWS V14.01,2013-06-16 03:17:00,
2013-06-15 23:22:00,50.0,41.3,29.98,SSE,168,0.0,0.0,72,0.00,,CLR,0.00,VWS V14.01,2013-06-16 03:22:00,
2013-06-15 23:27:00,50.0,41.3,29.98,SSE,168,0.0,0.0,72,0.00,,CLR,0.00,VWS V14.01,2013-06-16 03:27:00,
2013-06-15 23:32:00,50.0,41.7,29.98,SSE,168,0.0,0.0,73,0.00,,CLR,0.00,VWS V14.01,2013-06-16 03:32:00,
2013-06-15 23:37:00,50.0,41.7,29.98,SSE,168,0.0,0.0,73,0.00,,CLR,0.00,VWS V14.01,2013-06-16 03:37:00,
2013-06-15 23:42:00,50.0,42.0,29.98,SSE,168,0.0,0.0,74,0.00,,CLR,0.00,VWS V14.01,2013-06-16 03:42:00,
2013-06-15 23:47:00,50.0,42.0,29.98,SSE,168,0.0,0.0,74,0.00,,CLR,0.00,VWS V14.01,2013-06-16 03:47:00,
2013-06-15 23:52:00,50.0,42.0,29.98,SSE,168,0.0,0.0,74,0.00,,CLR,0.00,VWS V14.01,2013-06-16 03:52:00,
2013-06-15 23:57:00,50.0,42.0,29.98,SSE,168,0.0,0.0,74,0.00,,CLR,0.00,VWS V14.01,2013-06-16 03:57:00,